Terminal Aerodrome Forecast
Issued by NWS Green Bay, WI

Home | Current Version | Previous Version | Graphics & Text | Print | Product List | Glossary Off
Versions: 1 2 3 4 5 6 7 8 9 10 11 12 13 14 15 16 17 18 19 20 21 22 23 24 25 26 27 28 29 30

054
FTUS43 KGRB 040542
TAFGRB
TAF
KGRB 040542Z 0406/0506 35009KT P6SM SCT040 BKN090
      TEMPO 0406/0410 3SM BR BKN040
     FM041000 34011G24KT P6SM SCT035 BKN070
     FM041400 36016G26KT P6SM BKN030 BKN070
     FM042300 02014G20KT P6SM SCT030 SCT070
     FM050300 01008KT P6SM SKC=

USA.gov is the U.S. government's official web portal to all federal, state and local government web resources and services.